Time;durP1;ratioP1;P1;durP2;ratioP2;P2;SDS_P1;SDS_P2;PMS_P1;PMS_P2;Temp;Humidity;BMP_temperature;BMP_pressure;BME280_temperature;BME280_humidity;BME280_pressure;Samples;Min_cycle;Max_cycle;Signal;HPM_P1;HPM_P2
2022/10/09 00:00:10;;;;;;;8.70;2.30;;;9.70;99.90;;;;;;4954176;28;20460;-64
2022/10/09 00:02:36;;;;;;;7.82;2.95;;;9.60;99.90;;;;;;4980923;28;20481;-64
2022/10/09 00:05:02;;;;;;;6.30;1.90;;;9.60;99.90;;;;;;4985865;28;20041;-62
2022/10/09 00:07:28;;;;;;;10.25;2.42;;;9.60;99.90;;;;;;5008495;28;20152;-62
2022/10/09 00:09:53;;;;;;;10.15;2.35;;;9.60;99.90;;;;;;5008086;28;20037;-61
2022/10/09 00:12:19;;;;;;;5.80;1.92;;;9.60;99.90;;;;;;4984853;28;20523;-62
2022/10/09 00:14:45;;;;;;;5.35;1.90;;;9.70;99.90;;;;;;5007279;28;20431;-63
2022/10/09 00:17:10;;;;;;;6.95;2.63;;;9.70;99.90;;;;;;4997072;28;20233;-60
2022/10/09 00:19:36;;;;;;;8.48;2.67;;;9.70;99.90;;;;;;5004107;28;20061;-62
2022/10/09 00:22:02;;;;;;;8.38;3.28;;;9.70;99.90;;;;;;4996061;28;20042;-62
2022/10/09 00:24:27;;;;;;;7.38;2.60;;;9.70;99.90;;;;;;5004090;28;20045;-63
2022/10/09 00:26:53;;;;;;;6.72;2.47;;;9.70;99.90;;;;;;5002786;28;20397;-62
2022/10/09 00:29:19;;;;;;;10.38;2.88;;;9.70;99.90;;;;;;4996862;28;20045;-61
2022/10/09 00:31:44;;;;;;;9.20;3.25;;;9.60;99.90;;;;;;4996970;28;20042;-62
2022/10/09 00:34:10;;;;;;;7.45;2.50;;;9.60;99.90;;;;;;4998316;28;20497;-62
2022/10/09 00:36:36;;;;;;;8.95;2.72;;;9.60;99.90;;;;;;4982225;28;20069;-61
2022/10/09 00:39:01;;;;;;;9.95;3.00;;;9.60;99.90;;;;;;4982180;28;20037;-61
2022/10/09 00:41:29;;;;;;;7.95;2.15;;;9.60;99.90;;;;;;4999502;28;20038;-61
2022/10/09 00:43:58;;;;;;;11.52;4.07;;;9.60;99.90;;;;;;4998358;28;20060;-63
2022/10/09 00:46:59;;;;;;;11.55;2.90;;;9.50;99.90;;;;;;5006139;28;20218;-60
2022/10/09 00:49:29;;;;;;;6.05;2.47;;;9.50;99.90;;;;;;4973391;28;20244;-64
2022/10/09 00:51:59;;;;;;;7.55;2.83;;;9.50;99.90;;;;;;4991200;28;20060;-64
2022/10/09 00:54:29;;;;;;;9.30;3.13;;;9.50;99.90;;;;;;5000720;28;20046;-65
2022/10/09 00:56:55;;;;;;;7.40;2.25;;;9.50;99.90;;;;;;5003903;28;20121;-60
2022/10/09 00:59:22;;;;;;;10.18;2.78;;;9.50;99.90;;;;;;5002451;28;20172;-59
2022/10/09 01:01:47;;;;;;;10.27;3.15;;;9.50;99.90;;;;;;5006989;28;20300;-63
2022/10/09 01:04:13;;;;;;;9.27;3.03;;;9.40;99.90;;;;;;5001351;28;20034;-62
2022/10/09 01:06:59;;;;;;;6.57;3.03;;;9.50;99.90;;;;;;5008179;28;20084;-64
2022/10/09 01:09:37;;;;;;;8.38;2.60;;;9.40;99.90;;;;;;4998466;28;20489;-64
2022/10/09 01:12:16;;;;;;;5.65;2.60;;;9.40;99.90;;;;;;4972510;28;20046;-62
2022/10/09 01:15:01;;;;;;;7.10;2.88;;;9.40;99.90;;;;;;4990834;28;20123;-61
2022/10/09 01:17:47;;;;;;;10.95;3.20;;;9.40;99.90;;;;;;4985045;28;20050;-64
2022/10/09 01:20:50;;;;;;;7.57;2.60;;;9.40;99.90;;;;;;4967970;28;20038;-62
2022/10/09 01:23:43;;;;;;;9.57;3.00;;;9.40;99.90;;;;;;4963866;28;20049;-62
2022/10/09 01:26:15;;;;;;;8.65;2.50;;;9.40;99.90;;;;;;4968583;28;20136;-64
2022/10/09 01:28:54;;;;;;;8.13;2.92;;;9.40;99.90;;;;;;4959106;28;20049;-62
2022/10/09 01:31:22;;;;;;;6.85;2.75;;;9.30;99.90;;;;;;5007012;28;20296;-63
2022/10/09 01:33:48;;;;;;;6.30;2.60;;;9.30;99.90;;;;;;4980020;28;20034;-64
2022/10/09 01:36:16;;;;;;;8.57;2.65;;;9.30;99.90;;;;;;4997438;28;20033;-64
2022/10/09 01:38:43;;;;;;;9.85;3.00;;;9.20;99.90;;;;;;4980799;28;20307;-63
2022/10/09 01:41:09;;;;;;;5.15;2.60;;;9.20;99.90;;;;;;5010446;28;20038;-62
2022/10/09 01:43:35;;;;;;;6.60;3.00;;;9.20;99.90;;;;;;4999193;28;20446;-62
2022/10/09 01:46:26;;;;;;;8.25;3.40;;;9.10;99.90;;;;;;5001284;28;20131;-61
2022/10/09 01:49:23;;;;;;;8.07;3.28;;;9.10;99.90;;;;;;5005035;28;20038;-62
2022/10/09 01:52:07;;;;;;;7.60;3.30;;;9.10;99.90;;;;;;4987852;28;20058;-64
2022/10/09 01:55:03;;;;;;;9.35;3.17;;;9.00;99.90;;;;;;5008683;28;20042;-65
2022/10/09 01:57:49;;;;;;;10.70;3.50;;;9.00;99.90;;;;;;5003001;28;20050;-64
2022/10/09 02:00:15;;;;;;;9.25;3.42;;;9.00;99.90;;;;;;5003782;28;20045;-62
2022/10/09 02:02:43;;;;;;;12.40;4.30;;;9.00;99.90;;;;;;4967383;28;20038;-60
2022/10/09 02:05:14;;;;;;;7.95;3.30;;;8.90;99.90;;;;;;4998312;28;20062;-61
2022/10/09 02:07:40;;;;;;;11.05;3.65;;;8.90;99.90;;;;;;5004545;28;20037;-63
2022/10/09 02:10:08;;;;;;;9.73;3.70;;;8.90;99.90;;;;;;5012079;28;20042;-61
2022/10/09 02:12:37;;;;;;;10.63;3.45;;;8.80;99.90;;;;;;4986142;28;20049;-60
2022/10/09 02:15:04;;;;;;;8.57;3.58;;;8.80;99.90;;;;;;5002128;28;20038;-62
2022/10/09 02:17:33;;;;;;;11.45;4.30;;;8.80;99.90;;;;;;4981314;28;20116;-63
2022/10/09 02:20:17;;;;;;;8.63;3.92;;;8.80;99.90;;;;;;4986485;28;20571;-65
2022/10/09 02:22:44;;;;;;;8.02;3.92;;;8.40;99.90;;;;;;4984660;28;20078;-63
2022/10/09 02:25:11;;;;;;;7.45;3.22;;;8.80;99.90;;;;;;4983080;28;20561;-62
2022/10/09 02:27:37;;;;;;;7.55;3.78;;;8.80;99.90;;;;;;4984142;28;20077;-64
2022/10/09 02:30:06;;;;;;;6.55;3.85;;;8.70;99.90;;;;;;4982544;28;20173;-64
2022/10/09 02:32:31;;;;;;;6.80;3.95;;;8.70;99.90;;;;;;4969050;28;20111;-62
2022/10/09 02:34:57;;;;;;;5.97;3.92;;;8.60;99.90;;;;;;4986813;28;20049;-64
2022/10/09 02:37:23;;;;;;;10.65;4.30;;;8.60;99.90;;;;;;4988739;28;20242;-63
2022/10/09 02:39:49;;;;;;;12.10;4.18;;;8.60;99.90;;;;;;4990692;28;20065;-59
2022/10/09 02:42:14;;;;;;;7.85;3.30;;;8.60;99.90;;;;;;4985889;28;20038;-61
2022/10/09 02:44:40;;;;;;;12.13;4.63;;;8.60;99.90;;;;;;5008718;28;20038;-62
2022/10/09 02:47:06;;;;;;;8.13;2.95;;;8.60;99.90;;;;;;5000577;28;20091;-64
2022/10/09 02:49:31;;;;;;;7.05;3.75;;;8.60;99.90;;;;;;5007164;28;20065;-59
2022/10/09 02:51:57;;;;;;;5.43;3.05;;;8.60;99.90;;;;;;5009116;28;20069;-61
2022/10/09 02:54:23;;;;;;;8.13;3.40;;;8.60;99.90;;;;;;5009258;28;20041;-61
2022/10/09 02:56:49;;;;;;;7.18;4.38;;;8.60;99.90;;;;;;5007902;28;20144;-61
2022/10/09 02:59:15;;;;;;;6.95;3.33;;;8.60;99.90;;;;;;4991093;28;20052;-64
2022/10/09 03:01:40;;;;;;;6.35;3.42;;;8.60;99.90;;;;;;4983760;28;20272;-61
2022/10/09 03:04:06;;;;;;;9.15;3.60;;;8.50;99.90;;;;;;5006144;28;20053;-61
2022/10/09 03:06:32;;;;;;;8.05;3.75;;;8.60;99.90;;;;;;5007129;28;20130;-60
2022/10/09 03:08:58;;;;;;;7.70;3.97;;;8.50;99.90;;;;;;4979260;28;20113;-61
2022/10/09 03:11:24;;;;;;;6.22;3.38;;;8.50;99.90;;;;;;5003139;28;20061;-63
2022/10/09 03:13:50;;;;;;;6.55;4.00;;;8.40;99.90;;;;;;4988919;28;20627;-62
2022/10/09 03:16:18;;;;;;;7.28;3.72;;;8.40;99.90;;;;;;4992978;28;20408;-63
2022/10/09 03:18:45;;;;;;;7.63;4.15;;;8.40;99.90;;;;;;4966732;28;20033;-64
2022/10/09 03:21:20;;;;;;;9.13;4.00;;;8.40;99.90;;;;;;4967382;28;20041;-62
2022/10/09 03:23:46;;;;;;;7.15;3.58;;;8.40;99.90;;;;;;4992376;28;20480;-63
2022/10/09 03:26:16;;;;;;;8.70;3.78;;;8.40;99.90;;;;;;4984132;28;20042;-63
2022/10/09 03:28:46;;;;;;;5.82;3.03;;;8.30;99.90;;;;;;4969485;28;20061;-60
2022/10/09 03:31:12;;;;;;;6.15;2.95;;;8.30;99.90;;;;;;4984518;28;20538;-61
2022/10/09 03:33:38;;;;;;;7.63;4.20;;;8.30;99.90;;;;;;4983011;28;20742;-61
2022/10/09 03:36:04;;;;;;;7.90;3.45;;;8.30;99.90;;;;;;4967413;28;21498;-61
2022/10/09 03:38:30;;;;;;;14.43;5.53;;;8.30;99.90;;;;;;4991984;28;20219;-60
2022/10/09 03:40:58;;;;;;;6.43;3.47;;;8.40;99.90;;;;;;4988072;28;20296;-61
2022/10/09 03:43:24;;;;;;;11.23;4.68;;;8.40;99.90;;;;;;5000422;28;20110;-60
2022/10/09 03:45:50;;;;;;;8.57;5.05;;;8.40;99.90;;;;;;5000742;28;20038;-60
2022/10/09 03:48:16;;;;;;;7.55;4.25;;;8.40;99.90;;;;;;5006667;28;20088;-62
2022/10/09 03:50:42;;;;;;;10.73;5.25;;;8.40;99.90;;;;;;4977512;28;20038;-58
2022/10/09 03:53:09;;;;;;;8.73;4.85;;;8.40;99.90;;;;;;4987997;28;20057;-60
2022/10/09 03:55:35;;;;;;;6.35;3.72;;;8.30;99.90;;;;;;4969733;28;20100;-62
2022/10/09 03:58:01;;;;;;;11.90;5.30;;;8.30;99.90;;;;;;4984422;28;20037;-61
2022/10/09 04:00:28;;;;;;;9.35;5.32;;;8.20;99.90;;;;;;4974095;28;20038;-62
2022/10/09 04:02:53;;;;;;;10.10;4.65;;;8.20;99.90;;;;;;4976381;28;20033;-62
2022/10/09 04:05:19;;;;;;;14.95;6.10;;;8.10;99.90;;;;;;4987141;28;20037;-63
2022/10/09 04:07:45;;;;;;;11.13;4.93;;;8.20;99.90;;;;;;4984695;28;20249;-64
2022/10/09 04:10:11;;;;;;;14.57;6.97;;;8.20;99.90;;;;;;4988614;28;20045;-61
2022/10/09 04:12:37;;;;;;;11.95;6.50;;;8.20;99.90;;;;;;4965713;28;20065;-62
2022/10/09 04:15:03;;;;;;;11.38;7.15;;;8.20;99.90;;;;;;4980142;28;20069;-64
2022/10/09 04:17:29;;;;;;;13.77;6.60;;;8.20;99.90;;;;;;4985084;28;20181;-61
2022/10/09 04:19:55;;;;;;;8.63;6.25;;;8.30;99.90;;;;;;4969560;28;20096;-63
2022/10/09 04:22:20;;;;;;;8.68;6.40;;;8.30;99.90;;;;;;4969244;28;20041;-60
2022/10/09 04:24:46;;;;;;;10.80;6.55;;;8.30;99.90;;;;;;4991854;28;20061;-64
2022/10/09 04:27:12;;;;;;;10.50;6.80;;;8.30;99.90;;;;;;4985083;28;20042;-58
2022/10/09 04:29:38;;;;;;;8.60;6.80;;;8.30;99.90;;;;;;4966752;28;20125;-60
2022/10/09 04:32:04;;;;;;;8.88;6.45;;;8.30;99.90;;;;;;4984705;28;20076;-63
2022/10/09 04:34:30;;;;;;;8.57;6.30;;;8.30;99.90;;;;;;4982754;28;20088;-61
2022/10/09 04:36:55;;;;;;;10.27;6.28;;;8.30;99.90;;;;;;4976542;28;20045;-61
2022/10/09 04:39:21;;;;;;;9.38;6.18;;;8.20;99.90;;;;;;4952304;28;20037;-64
2022/10/09 04:41:47;;;;;;;10.45;7.05;;;8.20;99.90;;;;;;4965110;28;20978;-64
2022/10/09 04:44:13;;;;;;;9.13;6.78;;;8.20;99.90;;;;;;4963648;28;20041;-61
2022/10/09 04:46:38;;;;;;;9.55;6.78;;;8.20;99.90;;;;;;4955473;28;20409;-64
2022/10/09 04:49:04;;;;;;;11.63;7.35;;;8.20;99.90;;;;;;4978420;28;20167;-61
2022/10/09 04:51:30;;;;;;;13.85;6.97;;;8.10;99.90;;;;;;4981705;28;20128;-62
2022/10/09 04:53:56;;;;;;;10.43;7.10;;;8.20;99.90;;;;;;4986759;28;20041;-62
2022/10/09 04:56:23;;;;;;;12.18;6.75;;;8.20;99.90;;;;;;4973380;28;20080;-61
2022/10/09 04:58:49;;;;;;;15.13;7.38;;;8.20;99.90;;;;;;4964494;28;20486;-60
2022/10/09 05:01:21;;;;;;;10.32;6.00;;;8.20;99.90;;;;;;4967674;28;20080;-60
2022/10/09 05:03:47;;;;;;;13.32;6.78;;;8.30;99.90;;;;;;4945355;28;20052;-63
2022/10/09 05:06:13;;;;;;;13.73;6.85;;;8.30;99.90;;;;;;4946378;28;20228;-63
2022/10/09 05:08:41;;;;;;;13.93;8.10;;;8.20;99.90;;;;;;4987040;28;20054;-64
2022/10/09 05:11:12;;;;;;;11.07;7.30;;;8.20;99.90;;;;;;4973548;28;20120;-60
2022/10/09 05:13:41;;;;;;;9.48;5.75;;;8.20;99.90;;;;;;5004463;23;20484;-64
2022/10/09 05:16:09;;;;;;;9.38;5.65;;;8.20;99.90;;;;;;4987685;28;20047;-66
2022/10/09 05:18:39;;;;;;;9.18;6.65;;;8.20;99.90;;;;;;5000387;28;20161;-67
2022/10/09 05:21:05;;;;;;;9.95;6.90;;;8.10;99.90;;;;;;4974569;28;20045;-68
2022/10/09 05:23:31;;;;;;;9.30;5.88;;;8.20;99.90;;;;;;4965881;28;20052;-68
2022/10/09 05:26:00;;;;;;;10.77;6.90;;;8.20;99.90;;;;;;4951160;28;20514;-65
2022/10/09 05:28:26;;;;;;;8.10;5.80;;;8.20;99.90;;;;;;4970052;28;20071;-64
2022/10/09 05:30:52;;;;;;;15.80;7.10;;;8.20;99.90;;;;;;4951393;28;20033;-67
2022/10/09 05:33:18;;;;;;;10.82;7.32;;;8.10;99.90;;;;;;4971779;28;20057;-64
2022/10/09 05:35:55;;;;;;;12.18;7.13;;;8.10;99.90;;;;;;4969031;28;20034;-64
2022/10/09 05:38:22;;;;;;;14.13;7.20;;;7.90;99.90;;;;;;4965805;28;20497;-67
2022/10/09 05:41:05;;;;;;;13.70;7.35;;;8.10;99.90;;;;;;4970998;28;20334;-64
2022/10/09 05:43:40;;;;;;;13.00;7.22;;;8.10;99.90;;;;;;4971192;28;20310;-67
2022/10/09 05:46:23;;;;;;;10.13;5.72;;;8.00;99.90;;;;;;5003505;28;20046;-65
2022/10/09 05:48:58;;;;;;;12.18;6.43;;;8.00;99.90;;;;;;4986546;28;20049;-64
2022/10/09 05:51:33;;;;;;;8.73;5.82;;;8.00;99.90;;;;;;4977975;28;20489;-63
2022/10/09 05:54:02;;;;;;;7.78;5.13;;;8.00;99.90;;;;;;4971360;28;20044;-66
2022/10/09 05:56:33;;;;;;;13.73;6.78;;;8.00;99.90;;;;;;5007354;28;20125;-65
2022/10/09 05:59:04;;;;;;;9.88;6.13;;;8.10;99.90;;;;;;4983012;28;20060;-64
2022/10/09 06:01:33;;;;;;;10.23;6.60;;;8.10;99.90;;;;;;4971096;28;20046;-65
2022/10/09 06:03:59;;;;;;;11.10;6.32;;;8.30;99.90;;;;;;4994258;28;20046;-64
2022/10/09 06:06:28;;;;;;;15.77;7.60;;;8.20;99.90;;;;;;5013254;28;20060;-64
2022/10/09 06:08:54;;;;;;;16.80;7.05;;;8.10;99.90;;;;;;4991760;28;20050;-64
2022/10/09 06:11:30;;;;;;;13.57;6.60;;;8.10;99.90;;;;;;4980165;28;20662;-63
2022/10/09 06:13:57;;;;;;;9.40;6.82;;;8.00;99.90;;;;;;4969089;28;20053;-64
2022/10/09 06:16:26;;;;;;;9.90;6.43;;;8.10;99.90;;;;;;4989392;28;20424;-65
2022/10/09 06:18:53;;;;;;;7.10;5.50;;;8.10;99.90;;;;;;4982831;28;20062;-63
2022/10/09 06:21:19;;;;;;;9.02;6.57;;;8.10;99.90;;;;;;4973898;28;20286;-63
2022/10/09 06:23:49;;;;;;;12.18;7.60;;;8.20;99.90;;;;;;4960186;28;20057;-66
2022/10/09 06:26:15;;;;;;;14.45;7.53;;;8.10;99.90;;;;;;4973521;28;20072;-67
2022/10/09 06:28:41;;;;;;;11.70;7.55;;;8.10;99.90;;;;;;4971720;28;20137;-67
2022/10/09 06:31:19;;;;;;;12.10;7.15;;;8.20;99.90;;;;;;4955998;28;20497;-67
2022/10/09 06:33:46;;;;;;;13.50;7.15;;;8.20;99.90;;;;;;4976228;28;20046;-67
2022/10/09 06:36:21;;;;;;;9.98;6.55;;;8.20;99.90;;;;;;4997260;28;20399;-65
2022/10/09 06:38:48;;;;;;;9.45;6.50;;;8.30;99.90;;;;;;5008102;28;20045;-64
2022/10/09 06:41:25;;;;;;;12.27;7.07;;;8.30;99.90;;;;;;4991082;28;20046;-63
2022/10/09 06:43:53;;;;;;;14.40;7.88;;;8.60;99.90;;;;;;4987256;28;20054;-66
2022/10/09 06:46:21;;;;;;;15.57;7.70;;;8.90;99.90;;;;;;4973358;28;20049;-67
2022/10/09 06:48:47;;;;;;;14.32;7.55;;;9.40;99.90;;;;;;4975555;28;20329;-65
2022/10/09 06:51:15;;;;;;;9.70;6.57;;;9.70;99.90;;;;;;4982439;28;20296;-67
2022/10/09 06:53:47;;;;;;;9.40;6.57;;;10.30;99.90;;;;;;4997451;28;20065;-63
2022/10/09 06:56:13;;;;;;;11.27;6.43;;;10.50;99.90;;;;;;4988291;28;20103;-65
2022/10/09 06:58:40;;;;;;;11.52;6.25;;;10.60;99.90;;;;;;4992195;28;20179;-63
2022/10/09 07:01:10;;;;;;;10.40;6.53;;;10.50;99.90;;;;;;5007229;28;20033;-64
2022/10/09 07:03:38;;;;;;;15.30;6.75;;;10.40;99.90;;;;;;4987953;28;20050;-64
2022/10/09 07:06:09;;;;;;;10.75;6.57;;;10.20;99.90;;;;;;5009478;28;20052;-65
2022/10/09 07:08:36;;;;;;;9.70;5.72;;;9.90;99.90;;;;;;5009427;28;20044;-63
2022/10/09 07:11:29;;;;;;;15.32;6.40;;;9.80;99.90;;;;;;4992493;28;20065;-63
2022/10/09 07:14:00;;;;;;;8.57;5.68;;;9.70;99.90;;;;;;4973438;28;20046;-64
2022/10/09 07:16:28;;;;;;;14.63;7.97;;;9.60;99.90;;;;;;4987502;28;20139;-64
2022/10/09 07:18:54;;;;;;;11.63;7.43;;;9.60;99.90;;;;;;4979868;28;20048;-64
2022/10/09 07:21:20;;;;;;;10.52;6.43;;;9.60;99.90;;;;;;4982524;28;20034;-63
2022/10/09 07:23:46;;;;;;;10.70;5.47;;;9.60;99.90;;;;;;4987182;28;20041;-65
2022/10/09 07:26:18;;;;;;;8.55;5.60;;;9.60;99.90;;;;;;4989121;28;20042;-64
2022/10/09 07:28:45;;;;;;;13.60;6.25;;;9.70;99.90;;;;;;4986979;28;20041;-64
2022/10/09 07:31:12;;;;;;;11.43;6.35;;;9.70;99.90;;;;;;4981872;28;20566;-67
2022/10/09 07:33:38;;;;;;;11.85;6.13;;;9.80;99.90;;;;;;4972127;28;20046;-64
2022/10/09 07:36:05;;;;;;;11.27;5.68;;;9.90;99.90;;;;;;4985786;28;20388;-66
2022/10/09 07:38:31;;;;;;;9.80;6.22;;;9.90;99.90;;;;;;4958061;28;20035;-64
2022/10/09 07:41:02;;;;;;;10.02;5.97;;;10.00;99.90;;;;;;5003891;28;20292;-63
2022/10/09 07:43:28;;;;;;;11.38;5.68;;;10.10;99.90;;;;;;4974622;28;20045;-67
2022/10/09 07:45:59;;;;;;;10.30;5.35;;;10.20;99.90;;;;;;4985793;28;20373;-68
2022/10/09 07:48:24;;;;;;;7.70;5.00;;;10.30;99.90;;;;;;4993305;28;20064;-68
2022/10/09 07:50:50;;;;;;;9.82;5.82;;;10.40;99.90;;;;;;5005070;28;20092;-65
2022/10/09 07:53:16;;;;;;;10.60;6.40;;;10.60;99.90;;;;;;4973490;28;20041;-64
2022/10/09 07:55:45;;;;;;;11.15;5.97;;;10.70;99.90;;;;;;5008685;28;20044;-64
2022/10/09 07:58:13;;;;;;;9.55;5.25;;;10.80;99.90;;;;;;4991148;28;20065;-65
2022/10/09 08:00:38;;;;;;;8.77;4.90;;;10.90;99.90;;;;;;4993595;28;20041;-64
2022/10/09 08:03:04;;;;;;;9.77;5.20;;;11.00;99.90;;;;;;4986761;28;20036;-65
2022/10/09 08:05:30;;;;;;;12.75;5.68;;;11.20;99.90;;;;;;4966915;28;20038;-64
2022/10/09 08:07:56;;;;;;;12.65;4.95;;;11.30;99.90;;;;;;4982678;28;20041;-67
2022/10/09 08:10:21;;;;;;;10.40;4.93;;;11.40;99.90;;;;;;5005718;28;20061;-69
2022/10/09 08:12:47;;;;;;;10.43;5.00;;;11.50;99.90;;;;;;4971349;28;20064;-64
2022/10/09 08:15:13;;;;;;;10.52;5.35;;;11.70;99.90;;;;;;4987688;28;20103;-63
2022/10/09 08:17:38;;;;;;;9.73;4.40;;;11.80;99.90;;;;;;4986690;28;20261;-65
2022/10/09 08:20:05;;;;;;;9.10;4.60;;;11.90;99.90;;;;;;4991432;28;20532;-68
2022/10/09 08:22:40;;;;;;;12.13;4.55;;;11.90;99.90;;;;;;4987499;28;20672;-67
2022/10/09 08:25:06;;;;;;;12.55;4.55;;;11.90;99.90;;;;;;4983599;28;20045;-68
2022/10/09 08:27:32;;;;;;;8.02;4.85;;;12.00;99.90;;;;;;5000670;28;20746;-64
2022/10/09 08:29:58;;;;;;;14.45;5.30;;;12.00;99.90;;;;;;4988553;28;20128;-64
2022/10/09 08:32:23;;;;;;;8.02;4.00;;;12.10;99.90;;;;;;4990525;28;20675;-66
2022/10/09 08:34:50;;;;;;;10.10;4.88;;;12.20;99.90;;;;;;4984069;28;20116;-64
2022/10/09 08:37:15;;;;;;;9.35;3.95;;;12.20;99.90;;;;;;4985223;28;20611;-66
2022/10/09 08:39:41;;;;;;;9.05;4.10;;;12.30;99.90;;;;;;4987239;28;20137;-66
2022/10/09 08:42:22;;;;;;;9.35;4.07;;;12.40;99.90;;;;;;4986356;28;20042;-65
2022/10/09 08:44:49;;;;;;;8.73;3.45;;;12.60;99.90;;;;;;4986959;28;20042;-64
2022/10/09 08:47:20;;;;;;;10.68;3.55;;;12.70;99.90;;;;;;4980992;28;20056;-67
2022/10/09 08:50:00;;;;;;;8.70;3.53;;;12.80;99.90;;;;;;5003273;28;20049;-66
2022/10/09 08:52:41;;;;;;;10.30;3.75;;;12.90;99.90;;;;;;4984329;28;20121;-66
2022/10/09 08:55:30;;;;;;;10.32;4.03;;;13.00;99.90;;;;;;4979172;28;20042;-65
2022/10/09 08:58:03;;;;;;;7.38;3.38;;;13.10;99.90;;;;;;4986541;28;20503;-64
2022/10/09 09:00:55;;;;;;;9.60;4.18;;;13.20;99.90;;;;;;4988731;28;20046;-67
2022/10/09 09:03:52;;;;;;;9.57;3.10;;;13.30;99.90;;;;;;4980926;28;20077;-67
2022/10/09 09:06:28;;;;;;;6.53;3.35;;;13.40;99.90;;;;;;4981037;28;20073;-65
2022/10/09 09:09:22;;;;;;;12.80;4.30;;;13.50;99.90;;;;;;4980233;28;20046;-67
2022/10/09 09:11:59;;;;;;;8.80;3.22;;;13.70;99.90;;;;;;4968743;28;20404;-67
2022/10/09 09:14:40;;;;;;;7.88;2.97;;;13.70;99.90;;;;;;4988622;28;20107;-65
2022/10/09 09:17:26;;;;;;;7.10;3.25;;;13.80;99.90;;;;;;5005417;28;20412;-65
2022/10/09 09:19:57;;;;;;;10.40;2.95;;;13.90;99.90;;;;;;4983078;28;20050;-64
2022/10/09 09:22:24;;;;;;;5.45;2.80;;;14.00;99.90;;;;;;4986936;28;20554;-66
2022/10/09 09:24:55;;;;;;;8.02;2.50;;;14.10;99.90;;;;;;4988400;28;20480;-66
2022/10/09 09:27:38;;;;;;;6.47;2.65;;;14.20;99.90;;;;;;4986246;28;20041;-65
2022/10/09 09:30:18;;;;;;;12.38;3.35;;;14.20;99.90;;;;;;4989176;28;20570;-64
2022/10/09 09:33:14;;;;;;;7.78;2.70;;;14.30;99.90;;;;;;4989841;28;20388;-64
2022/10/09 09:36:06;;;;;;;9.18;2.80;;;14.40;99.90;;;;;;4976130;28;20053;-65
2022/10/09 09:38:32;;;;;;;8.40;2.22;;;14.50;99.90;;;;;;4999944;28;20054;-64
2022/10/09 09:40:57;;;;;;;7.13;2.58;;;14.50;99.90;;;;;;4991496;28;20516;-65
2022/10/09 09:43:25;;;;;;;8.15;2.85;;;14.60;99.90;;;;;;4994842;28;20041;-65
2022/10/09 09:45:56;;;;;;;8.05;2.85;;;14.70;99.90;;;;;;4999228;28;20030;-64
2022/10/09 09:48:34;;;;;;;9.20;2.83;;;14.80;99.90;;;;;;5009008;28;20713;-65
2022/10/09 09:51:02;;;;;;;10.48;3.53;;;14.90;99.90;;;;;;4979798;28;20625;-65
2022/10/09 09:53:42;;;;;;;8.65;2.65;;;15.00;99.90;;;;;;4988770;28;20128;-63
2022/10/09 09:56:08;;;;;;;8.02;3.40;;;15.00;99.90;;;;;;4972847;28;20104;-63
2022/10/09 09:58:43;;;;;;;14.48;8.00;;;15.20;99.90;;;;;;4994184;28;21854;-65
2022/10/09 10:01:22;;;;;;;9.52;3.08;;;15.30;99.90;;;;;;4990675;28;20041;-64
2022/10/09 10:03:50;;;;;;;6.28;3.17;;;15.40;99.90;;;;;;4992844;28;20489;-64
2022/10/09 10:06:24;;;;;;;9.60;2.60;;;15.40;99.90;;;;;;4984593;28;20053;-64
2022/10/09 10:09:17;;;;;;;9.52;2.75;;;15.40;99.90;;;;;;5004338;28;20046;-64
2022/10/09 10:11:46;;;;;;;8.60;2.42;;;15.60;99.90;;;;;;5001299;28;20064;-65
2022/10/09 10:14:14;;;;;;;9.10;3.25;;;15.60;99.90;;;;;;5006655;28;20046;-64
2022/10/09 10:16:40;;;;;;;9.10;2.75;;;15.60;99.90;;;;;;5000399;28;20056;-66
2022/10/09 10:19:17;;;;;;;9.45;2.90;;;15.50;99.90;;;;;;4992261;28;20034;-64
2022/10/09 10:21:47;;;;;;;17.02;3.35;;;15.70;99.90;;;;;;5005786;28;20045;-64
2022/10/09 10:24:21;;;;;;;5.80;2.13;;;15.80;99.90;;;;;;5013745;28;20034;-64
2022/10/09 10:26:54;;;;;;;10.38;2.30;;;15.80;99.90;;;;;;5005720;28;20404;-64
2022/10/09 10:29:37;;;;;;;10.38;3.00;;;15.90;99.90;;;;;;4995961;28;20060;-68
2022/10/09 10:32:42;;;;;;;5.53;1.98;;;16.00;99.90;;;;;;4970720;28;20088;-64
2022/10/09 10:35:16;;;;;;;8.90;2.20;;;16.00;99.90;;;;;;4990283;28;20416;-68
2022/10/09 10:37:59;;;;;;;7.65;2.10;;;16.10;99.90;;;;;;4990877;28;20385;-63
2022/10/09 10:40:33;;;;;;;11.43;2.55;;;16.10;99.90;;;;;;4982598;28;20369;-63
2022/10/09 10:43:05;;;;;;;6.47;2.10;;;16.10;99.90;;;;;;4995318;28;20053;-63
2022/10/09 10:45:45;;;;;;;6.28;2.15;;;16.40;99.90;;;;;;4981512;28;20065;-66
2022/10/09 10:48:24;;;;;;;7.50;1.98;;;16.50;99.90;;;;;;4981157;28;20049;-65
2022/10/09 10:51:08;;;;;;;7.15;2.10;;;16.40;99.90;;;;;;5004033;28;20476;-63
2022/10/09 10:54:00;;;;;;;5.40;1.70;;;16.40;99.90;;;;;;4973993;28;20042;-64
2022/10/09 10:56:34;;;;;;;4.75;2.03;;;16.40;99.90;;;;;;5009111;28;20204;-66
2022/10/09 10:59:03;;;;;;;;;;;16.50;99.90;;;;;;4975537;28;20658;-67
2022/10/09 11:01:52;;;;;;;9.50;1.80;;;16.60;99.90;;;;;;4980949;28;19918;-65
2022/10/09 11:04:40;;;;;;;7.40;2.13;;;16.70;99.80;;;;;;4993115;28;20120;-64
2022/10/09 11:07:08;;;;;;;6.65;1.70;;;16.70;99.90;;;;;;4999824;28;20057;-63
2022/10/09 11:09:52;;;;;;;7.05;1.73;;;16.80;99.90;;;;;;4985838;28;20046;-67
2022/10/09 11:12:43;;;;;;;8.48;1.77;;;16.80;99.90;;;;;;4970205;28;20042;-65
2022/10/09 11:15:36;;;;;;;5.35;2.10;;;16.90;99.80;;;;;;5047389;22;20464;-60
2022/10/09 11:18:25;;;;;;;5.57;1.67;;;16.90;99.60;;;;;;5044061;28;20542;-59
2022/10/09 11:21:12;;;;;;;10.40;2.78;;;17.00;99.20;;;;;;5041664;28;20395;-59
2022/10/09 11:24:04;;;;;;;8.75;1.75;;;16.90;98.90;;;;;;5040298;28;20056;-59
2022/10/09 11:26:43;;;;;;;5.32;1.58;;;17.00;99.20;;;;;;5042483;28;20094;-59
2022/10/09 11:29:23;;;;;;;5.82;2.40;;;17.10;99.00;;;;;;5035649;28;20124;-61
2022/10/09 11:31:55;;;;;;;6.90;1.65;;;17.10;98.60;;;;;;5041161;28;20518;-59
2022/10/09 11:34:41;;;;;;;8.00;2.40;;;17.10;98.40;;;;;;5055080;28;20087;-60
2022/10/09 11:37:17;;;;;;;6.82;1.80;;;17.30;98.90;;;;;;5043255;28;20530;-60
2022/10/09 11:39:43;;;;;;;11.38;2.75;;;17.50;98.80;;;;;;5043927;28;20480;-60
2022/10/09 11:42:13;;;;;;;8.48;2.60;;;17.60;98.40;;;;;;5040918;28;20049;-58
2022/10/09 11:45:00;;;;;;;6.32;1.80;;;17.60;98.20;;;;;;5035996;28;20413;-63
2022/10/09 11:47:40;;;;;;;5.38;1.60;;;17.70;97.50;;;;;;5040446;28;22212;-60
2022/10/09 11:50:27;;;;;;;6.38;1.85;;;17.80;97.80;;;;;;5042589;28;20045;-59
2022/10/09 11:52:59;;;;;;;9.32;1.75;;;17.90;98.00;;;;;;5018536;28;20041;-59
2022/10/09 11:55:28;;;;;;;6.63;1.60;;;17.90;97.50;;;;;;5040871;28;20045;-58
2022/10/09 11:57:53;;;;;;;4.35;1.30;;;17.90;96.70;;;;;;5044659;28;20040;-59
2022/10/09 12:00:34;;;;;;;4.35;1.95;;;17.90;96.60;;;;;;5046713;28;20037;-58
2022/10/09 12:03:03;;;;;;;5.80;1.35;;;17.90;96.80;;;;;;5035803;28;20032;-57
2022/10/09 12:05:41;;;;;;;6.50;1.48;;;18.00;96.30;;;;;;5038338;28;20180;-60
2022/10/09 12:08:24;;;;;;;8.48;1.85;;;18.00;95.60;;;;;;5042199;28;20491;-60
2022/10/09 12:11:05;;;;;;;7.78;1.85;;;18.00;95.50;;;;;;5042803;28;20040;-60
2022/10/09 12:13:43;;;;;;;4.18;1.58;;;18.00;95.50;;;;;;5040038;28;20041;-60
2022/10/09 12:16:30;;;;;;;6.00;2.55;;;18.00;95.60;;;;;;5057088;28;20040;-60
2022/10/09 12:18:58;;;;;;;7.07;1.88;;;18.20;95.60;;;;;;5045365;28;20040;-59
2022/10/09 12:21:37;;;;;;;8.07;1.90;;;18.40;95.50;;;;;;5037972;28;20037;-59
2022/10/09 12:24:04;;;;;;;6.55;2.13;;;18.30;94.70;;;;;;5039408;28;20036;-59
2022/10/09 12:26:31;;;;;;;9.77;2.60;;;18.50;94.70;;;;;;5036134;28;20097;-59
2022/10/09 12:29:04;;;;;;;5.85;2.05;;;18.50;94.70;;;;;;5040047;28;20044;-59
2022/10/09 12:31:35;;;;;;;8.82;2.22;;;18.50;94.10;;;;;;5038247;28;20041;-60
2022/10/09 12:34:04;;;;;;;6.18;2.35;;;18.60;94.40;;;;;;5040601;28;20032;-60
2022/10/09 12:36:30;;;;;;;7.82;2.35;;;18.80;94.20;;;;;;5045730;28;20044;-60
2022/10/09 12:38:56;;;;;;;8.20;2.20;;;18.90;94.30;;;;;;5047226;28;20036;-60
2022/10/09 12:41:34;;;;;;;6.75;2.15;;;18.90;93.70;;;;;;5046550;28;20041;-60
2022/10/09 12:44:16;;;;;;;8.40;2.55;;;18.90;93.10;;;;;;5047988;28;20170;-60
2022/10/09 12:46:42;;;;;;;5.75;2.25;;;18.90;93.50;;;;;;5038847;28;20037;-59
2022/10/09 12:49:18;;;;;;;8.55;2.00;;;18.90;93.10;;;;;;5037809;28;20040;-59
2022/10/09 12:51:53;;;;;;;4.70;1.85;;;19.00;92.90;;;;;;5042613;28;20090;-58
2022/10/09 12:54:19;;;;;;;7.80;2.10;;;19.10;93.40;;;;;;5037929;28;20087;-59
2022/10/09 12:56:47;;;;;;;7.43;2.00;;;19.20;92.90;;;;;;5038847;28;20045;-60
2022/10/09 12:59:13;;;;;;;7.55;2.42;;;19.20;92.70;;;;;;5027523;28;20083;-60
2022/10/09 13:01:41;;;;;;;8.60;2.95;;;19.20;92.60;;;;;;5035650;28;20071;-58
2022/10/09 13:04:09;;;;;;;6.78;2.13;;;19.20;92.60;;;;;;5035065;28;20485;-60
2022/10/09 13:06:48;;;;;;;7.40;2.40;;;19.20;92.40;;;;;;5032855;28;20056;-58
2022/10/09 13:09:21;;;;;;;7.13;1.90;;;19.30;92.30;;;;;;5033475;28;20052;-60
2022/10/09 13:12:03;;;;;;;5.93;1.73;;;19.20;91.80;;;;;;5044854;28;20076;-58